Time;durP1;ratioP1;P1;durP2;ratioP2;P2;SDS_P1;SDS_P2;PMS_P1;PMS_P2;Temp;Humidity;BMP_temperature;BMP_pressure;BME280_temperature;BME280_humidity;BME280_pressure;Samples;Min_cycle;Max_cycle;Signal;HPM_P1;HPM_P2
2022/04/27 00:00:34;;;;;;;0.20;0.20;;;;;;;;;;4978162;28;20042;-73
2022/04/27 00:03:02;;;;;;;0.17;0.17;;;;;;;;;;4978372;28;20050;-73
2022/04/27 00:05:28;;;;;;;0.10;0.10;;;;;;;;;;4978204;28;20058;-73
2022/04/27 00:07:54;;;;;;;0.10;0.10;;;;;;;;;;4978313;28;20125;-73
2022/04/27 00:10:20;;;;;;;0.10;0.10;;;;;;;;;;4978035;28;20043;-73
2022/04/27 00:12:47;;;;;;;0.10;0.10;;;;;;;;;;4978294;28;20042;-73
2022/04/27 00:15:13;;;;;;;0.10;0.10;;;;;;;;;;4978394;28;20101;-73
2022/04/27 00:17:40;;;;;;;0.10;0.10;;;;;;;;;;4977868;28;20049;-73
2022/04/27 00:20:07;;;;;;;0.10;0.10;;;;;;;;;;4978025;28;20038;-73
2022/04/27 00:22:33;;;;;;;0.10;0.10;;;;;;;;;;4978003;28;20043;-73
2022/04/27 00:25:00;;;;;;;0.10;0.10;;;;;;;;;;4978530;28;20050;-73
2022/04/27 00:27:27;;;;;;;0.10;0.10;;;;;;;;;;4977841;28;20498;-73
2022/04/27 00:29:53;;;;;;;0.13;0.13;;;;;;;;;;4977956;28;20046;-73
2022/04/27 00:32:19;;;;;;;0.10;0.10;;;;;;;;;;4978149;28;20054;-73
2022/04/27 00:34:45;;;;;;;0.55;0.55;;;;;;;;;;4978722;28;20061;-73
2022/04/27 00:37:12;;;;;;;0.15;0.15;;;;;;;;;;4978051;28;20066;-73
2022/04/27 00:39:38;;;;;;;0.17;0.17;;;;;;;;;;4977769;28;20042;-73
2022/04/27 00:42:17;;;;;;;0.10;0.10;;;;;;;;;;4977836;28;20129;-73
2022/04/27 00:44:44;;;;;;;0.10;0.10;;;;;;;;;;4978400;28;20047;-73
2022/04/27 00:47:11;;;;;;;0.10;0.10;;;;;;;;;;4978247;28;20105;-73
2022/04/27 00:49:37;;;;;;;0.10;0.10;;;;;;;;;;4978148;28;20031;-73
2022/04/27 00:52:04;;;;;;;0.30;0.30;;;;;;;;;;4978032;28;20143;-73
2022/04/27 00:54:30;;;;;;;0.10;0.10;;;;;;;;;;4978354;28;20043;-73
2022/04/27 00:56:56;;;;;;;0.10;0.10;;;;;;;;;;4977560;28;20077;-73
2022/04/27 00:59:23;;;;;;;0.10;0.10;;;;;;;;;;4977728;28;20118;-73
2022/04/27 01:01:49;;;;;;;0.32;0.20;;;;;;;;;;4977254;28;20074;-73
2022/04/27 01:04:15;;;;;;;0.10;0.10;;;;;;;;;;4977879;28;20051;-73
2022/04/27 01:06:41;;;;;;;0.10;0.10;;;;;;;;;;4977544;28;20047;-73
2022/04/27 01:09:07;;;;;;;0.05;0.05;;;;;;;;;;4977357;28;20153;-73
2022/04/27 01:11:34;;;;;;;0.52;0.40;;;;;;;;;;4977320;28;20129;-73
2022/04/27 01:14:00;;;;;;;0.10;0.10;;;;;;;;;;4977996;28;20067;-73
2022/04/27 01:16:26;;;;;;;0.03;0.03;;;;;;;;;;4977284;28;20042;-73
2022/04/27 01:18:52;;;;;;;0.15;0.15;;;;;;;;;;4977313;28;20174;-73
2022/04/27 01:21:19;;;;;;;0.32;0.32;;;;;;;;;;4977285;28;20072;-73
2022/04/27 01:23:45;;;;;;;1.08;0.40;;;;;;;;;;4977220;28;20094;-73
2022/04/27 01:26:11;;;;;;;0.10;0.10;;;;;;;;;;4977167;28;20045;-73
2022/04/27 01:28:38;;;;;;;0.10;0.10;;;;;;;;;;4976446;28;20058;-73
2022/04/27 01:31:09;;;;;;;0.08;0.08;;;;;;;;;;4976519;28;20046;-73
2022/04/27 01:33:35;;;;;;;0.10;0.10;;;;;;;;;;4976540;28;20431;-73
2022/04/27 01:36:01;;;;;;;0.20;0.20;;;;;;;;;;4976687;28;20129;-73
2022/04/27 01:38:28;;;;;;;0.22;0.22;;;;;;;;;;4976708;28;20093;-73
2022/04/27 01:40:56;;;;;;;0.20;0.20;;;;;;;;;;4976311;28;20046;-73
2022/04/27 01:43:25;;;;;;;1.15;0.50;;;;;;;;;;4976093;28;20043;-73
2022/04/27 01:45:52;;;;;;;0.10;0.10;;;;;;;;;;4976701;28;20046;-73
2022/04/27 01:48:18;;;;;;;0.20;0.20;;;;;;;;;;4976472;28;20038;-73
2022/04/27 01:50:44;;;;;;;0.50;0.47;;;;;;;;;;4976456;28;20055;-73
2022/04/27 01:55:55;;;;;;;0.20;0.20;;;;;;;;;;4976205;28;20046;-73
2022/04/27 01:58:22;;;;;;;0.10;0.10;;;;;;;;;;4975884;28;20035;-73
2022/04/27 02:00:48;;;;;;;0.10;0.10;;;;;;;;;;4976205;28;20042;-73
2022/04/27 02:03:15;;;;;;;0.00;0.00;;;;;;;;;;4976141;28;20046;-73
2022/04/27 02:05:42;;;;;;;0.10;0.10;;;;;;;;;;4976172;28;20055;-73
2022/04/27 02:08:08;;;;;;;0.10;0.10;;;;;;;;;;4976174;28;20038;-73
2022/04/27 02:10:34;;;;;;;0.10;0.10;;;;;;;;;;4976337;28;20047;-73
2022/04/27 02:13:01;;;;;;;0.43;0.43;;;;;;;;;;4976170;28;20041;-73
2022/04/27 02:15:27;;;;;;;1.75;0.28;;;;;;;;;;4976570;28;20050;-73
2022/04/27 02:17:54;;;;;;;0.10;0.10;;;;;;;;;;4976041;28;20050;-73
2022/04/27 02:20:22;;;;;;;0.10;0.10;;;;;;;;;;4976019;28;20050;-73
2022/04/27 02:22:48;;;;;;;0.10;0.10;;;;;;;;;;4975583;28;20031;-73
2022/04/27 02:25:14;;;;;;;0.08;0.08;;;;;;;;;;4975908;28;20110;-73
2022/04/27 02:27:42;;;;;;;0.10;0.10;;;;;;;;;;4975488;28;20182;-73
2022/04/27 02:30:09;;;;;;;0.10;0.10;;;;;;;;;;4976414;28;20034;-73
2022/04/27 02:32:35;;;;;;;0.10;0.10;;;;;;;;;;4976291;28;20071;-73
2022/04/27 02:35:01;;;;;;;0.40;0.22;;;;;;;;;;4976697;28;20046;-73
2022/04/27 02:37:28;;;;;;;0.10;0.10;;;;;;;;;;4975917;28;20486;-73
2022/04/27 02:39:54;;;;;;;0.13;0.13;;;;;;;;;;4975796;28;20050;-73
2022/04/27 02:42:20;;;;;;;0.10;0.10;;;;;;;;;;4975872;28;20049;-73
2022/04/27 02:44:46;;;;;;;0.10;0.10;;;;;;;;;;4975382;28;20407;-73
2022/04/27 02:47:12;;;;;;;0.10;0.10;;;;;;;;;;4975668;28;20068;-73
2022/04/27 02:52:23;;;;;;;0.10;0.10;;;;;;;;;;4975801;28;20173;-73
2022/04/27 02:54:49;;;;;;;0.10;0.10;;;;;;;;;;4976429;28;20068;-73
2022/04/27 02:57:16;;;;;;;0.10;0.10;;;;;;;;;;4975726;28;20213;-73
2022/04/27 02:59:43;;;;;;;0.10;0.10;;;;;;;;;;4975777;28;20039;-73
2022/04/27 03:02:09;;;;;;;0.20;0.20;;;;;;;;;;4975850;28;20043;-73
2022/04/27 03:04:35;;;;;;;0.10;0.10;;;;;;;;;;4976105;28;20094;-73
2022/04/27 03:07:02;;;;;;;0.10;0.10;;;;;;;;;;4975929;28;20043;-73
2022/04/27 03:09:29;;;;;;;0.10;0.10;;;;;;;;;;4976035;28;20042;-73
2022/04/27 03:11:55;;;;;;;0.00;0.00;;;;;;;;;;4975235;28;20035;-73
2022/04/27 03:14:21;;;;;;;0.40;0.40;;;;;;;;;;4975671;28;20053;-73
2022/04/27 03:16:48;;;;;;;1.27;0.82;;;;;;;;;;4975919;28;20066;-73
2022/04/27 03:19:14;;;;;;;2.53;0.80;;;;;;;;;;4976238;28;20054;-73
2022/04/27 03:21:41;;;;;;;0.20;0.20;;;;;;;;;;4975630;28;20038;-73
2022/04/27 03:24:07;;;;;;;0.10;0.10;;;;;;;;;;4975781;28;20090;-73
2022/04/27 03:26:33;;;;;;;0.10;0.10;;;;;;;;;;4975183;28;20043;-73
2022/04/27 03:28:59;;;;;;;0.10;0.10;;;;;;;;;;4975125;28;20075;-73
2022/04/27 03:31:26;;;;;;;0.30;0.30;;;;;;;;;;4976071;28;20184;-73
2022/04/27 03:33:52;;;;;;;0.10;0.10;;;;;;;;;;4979566;28;20053;-73
2022/04/27 03:36:18;;;;;;;0.10;0.10;;;;;;;;;;4979506;28;20045;-73
2022/04/27 03:38:48;;;;;;;0.10;0.10;;;;;;;;;;4978867;28;20393;-73
2022/04/27 03:41:17;;;;;;;0.08;0.08;;;;;;;;;;4978568;28;20476;-73
2022/04/27 03:43:44;;;;;;;1.13;0.47;;;;;;;;;;4979150;28;20050;-73
2022/04/27 03:46:10;;;;;;;0.10;0.10;;;;;;;;;;4978666;28;20053;-73
2022/04/27 03:48:36;;;;;;;0.10;0.10;;;;;;;;;;4978976;28;20057;-73
2022/04/27 03:51:04;;;;;;;0.00;0.00;;;;;;;;;;4979001;28;20043;-73
2022/04/27 03:53:30;;;;;;;0.20;0.20;;;;;;;;;;4978933;28;20049;-73
2022/04/27 03:55:56;;;;;;;0.10;0.10;;;;;;;;;;4979404;28;20077;-73
2022/04/27 03:58:22;;;;;;;0.30;0.30;;;;;;;;;;4978368;28;20050;-73
2022/04/27 04:00:49;;;;;;;0.00;0.00;;;;;;;;;;4979077;28;20050;-73
2022/04/27 04:03:15;;;;;;;0.32;0.30;;;;;;;;;;4978853;28;20486;-73
2022/04/27 04:05:41;;;;;;;0.10;0.10;;;;;;;;;;4978604;28;20057;-73
2022/04/27 04:08:08;;;;;;;0.10;0.10;;;;;;;;;;4978793;28;20039;-73
2022/04/27 04:10:34;;;;;;;0.10;0.10;;;;;;;;;;4978665;28;20070;-73
2022/04/27 04:13:01;;;;;;;0.10;0.10;;;;;;;;;;4978590;28;20070;-73
2022/04/27 04:15:27;;;;;;;0.10;0.10;;;;;;;;;;4978447;28;20039;-73
2022/04/27 04:17:54;;;;;;;0.10;0.10;;;;;;;;;;4978184;28;20043;-73
2022/04/27 04:20:20;;;;;;;0.10;0.10;;;;;;;;;;4978058;28;20046;-73
2022/04/27 04:22:46;;;;;;;0.10;0.10;;;;;;;;;;4978344;28;20046;-73
2022/04/27 04:30:43;;;;;;;0.10;0.10;;;;;;;;;;4977487;28;20045;-73
2022/04/27 04:33:09;;;;;;;0.20;0.20;;;;;;;;;;4977999;28;20082;-73
2022/04/27 04:35:36;;;;;;;0.10;0.10;;;;;;;;;;4977845;28;20047;-73
2022/04/27 04:38:04;;;;;;;0.10;0.10;;;;;;;;;;4977989;28;20045;-73
2022/04/27 04:40:30;;;;;;;0.10;0.10;;;;;;;;;;4977929;28;20536;-73
2022/04/27 04:42:56;;;;;;;0.10;0.10;;;;;;;;;;4977039;28;20050;-73
2022/04/27 04:45:25;;;;;;;0.10;0.10;;;;;;;;;;4977595;28;20425;-73
2022/04/27 04:47:52;;;;;;;0.10;0.10;;;;;;;;;;4977340;28;20042;-73
2022/04/27 04:50:18;;;;;;;0.08;0.08;;;;;;;;;;4977567;28;20128;-73
2022/04/27 04:52:46;;;;;;;0.20;0.20;;;;;;;;;;4977201;28;20039;-73
2022/04/27 04:55:12;;;;;;;1.27;0.22;;;;;;;;;;4976909;28;20039;-73
2022/04/27 04:57:38;;;;;;;0.65;0.65;;;;;;;;;;4976971;28;20517;-73
2022/04/27 05:00:05;;;;;;;0.10;0.10;;;;;;;;;;4977426;28;20039;-73
2022/04/27 05:02:32;;;;;;;0.30;0.30;;;;;;;;;;4977494;28;20101;-73
2022/04/27 05:04:59;;;;;;;0.10;0.10;;;;;;;;;;4977815;28;20050;-73
2022/04/27 05:07:25;;;;;;;0.00;0.00;;;;;;;;;;4977330;28;20038;-73
2022/04/27 05:09:51;;;;;;;0.22;0.22;;;;;;;;;;4977499;28;20039;-73
2022/04/27 05:12:17;;;;;;;0.10;0.10;;;;;;;;;;4976646;28;20062;-73
2022/04/27 05:14:43;;;;;;;0.08;0.08;;;;;;;;;;4977503;28;20493;-73
2022/04/27 05:17:10;;;;;;;0.13;0.13;;;;;;;;;;4977274;28;20078;-73
2022/04/27 05:19:37;;;;;;;0.82;0.28;;;;;;;;;;4977056;28;20038;-73
2022/04/27 05:22:03;;;;;;;0.10;0.10;;;;;;;;;;4976930;28;20122;-73
2022/04/27 05:24:29;;;;;;;0.10;0.10;;;;;;;;;;4976913;28;20513;-73
2022/04/27 05:26:56;;;;;;;0.10;0.10;;;;;;;;;;4976882;28;20046;-73
2022/04/27 05:31:58;;;;;;;0.30;0.30;;;;;;;;;;5318769;23;20191;-73
2022/04/27 05:34:25;;;;;;;0.10;0.10;;;;;;;;;;5036041;28;20034;-73
2022/04/27 05:36:51;;;;;;;0.10;0.10;;;;;;;;;;5032842;28;20046;-72
2022/04/27 05:39:20;;;;;;;0.10;0.10;;;;;;;;;;5052415;28;20029;-73
2022/04/27 05:41:47;;;;;;;0.17;0.17;;;;;;;;;;5041258;28;20118;-73
2022/04/27 05:44:13;;;;;;;0.17;0.17;;;;;;;;;;5034803;28;20046;-73
2022/04/27 05:46:40;;;;;;;0.10;0.10;;;;;;;;;;5034435;28;20037;-73
2022/04/27 05:49:06;;;;;;;0.35;0.35;;;;;;;;;;5035878;28;20061;-73
2022/04/27 05:51:32;;;;;;;0.15;0.15;;;;;;;;;;5034960;28;20049;-73
2022/04/27 05:53:58;;;;;;;0.10;0.10;;;;;;;;;;5033701;28;20503;-73
2022/04/27 05:56:25;;;;;;;0.30;0.30;;;;;;;;;;5038427;28;20041;-73
2022/04/27 05:58:51;;;;;;;2.30;0.35;;;;;;;;;;5033770;28;20459;-73
2022/04/27 06:01:21;;;;;;;1.65;0.40;;;;;;;;;;5034002;28;20054;-74
2022/04/27 06:03:47;;;;;;;0.20;0.20;;;;;;;;;;5035029;28;20125;-73
2022/04/27 06:06:13;;;;;;;0.22;0.22;;;;;;;;;;5034650;28;20431;-72
2022/04/27 06:08:39;;;;;;;0.20;0.20;;;;;;;;;;5034539;28;20045;-72
2022/04/27 06:11:05;;;;;;;0.30;0.30;;;;;;;;;;5033013;28;20049;-71
2022/04/27 06:13:31;;;;;;;0.20;0.20;;;;;;;;;;5041228;28;20033;-72
2022/04/27 06:15:58;;;;;;;0.45;0.45;;;;;;;;;;5043640;28;20071;-73
2022/04/27 06:18:24;;;;;;;0.20;0.20;;;;;;;;;;5043314;28;20033;-72
2022/04/27 06:20:52;;;;;;;0.13;0.13;;;;;;;;;;5039407;28;20146;-72
2022/04/27 06:23:18;;;;;;;6.93;1.42;;;;;;;;;;5033945;28;20037;-74
2022/04/27 06:25:47;;;;;;;0.30;0.30;;;;;;;;;;5036692;28;20049;-73
2022/04/27 06:28:14;;;;;;;0.20;0.20;;;;;;;;;;5035629;28;20041;-74
2022/04/27 06:30:40;;;;;;;0.40;0.40;;;;;;;;;;5040679;28;20091;-72
2022/04/27 06:33:06;;;;;;;0.22;0.22;;;;;;;;;;5027087;28;20071;-73
2022/04/27 06:35:32;;;;;;;0.17;0.17;;;;;;;;;;5031485;28;20622;-74
2022/04/27 06:37:59;;;;;;;0.10;0.10;;;;;;;;;;5034031;28;20191;-73
2022/04/27 06:40:25;;;;;;;0.55;0.55;;;;;;;;;;5035209;28;20041;-74
2022/04/27 06:42:52;;;;;;;0.45;0.45;;;;;;;;;;5034430;28;20041;-73
2022/04/27 06:45:18;;;;;;;0.10;0.10;;;;;;;;;;5034411;28;20807;-74
2022/04/27 06:47:44;;;;;;;0.28;0.20;;;;;;;;;;5034667;28;20052;-74
2022/04/27 06:50:13;;;;;;;0.10;0.10;;;;;;;;;;5034610;28;20512;-74
2022/04/27 06:52:48;;;;;;;0.55;0.55;;;;;;;;;;5034652;28;20048;-74
2022/04/27 06:55:15;;;;;;;0.10;0.10;;;;;;;;;;5034149;28;20053;-73
2022/04/27 06:57:41;;;;;;;0.10;0.10;;;;;;;;;;5030656;28;20029;-73
2022/04/27 07:00:12;;;;;;;0.30;0.30;;;;;;;;;;5033937;28;20037;-73
2022/04/27 07:02:39;;;;;;;0.63;0.63;;;;;;;;;;5014608;28;20041;-73
2022/04/27 07:05:09;;;;;;;0.65;0.50;;;;;;;;;;5033576;28;20049;-73
2022/04/27 07:07:35;;;;;;;0.10;0.10;;;;;;;;;;5038164;28;20033;-73
2022/04/27 07:10:01;;;;;;;0.20;0.20;;;;;;;;;;5038617;28;20037;-73
2022/04/27 07:12:27;;;;;;;0.10;0.10;;;;;;;;;;5038533;28;20042;-73
2022/04/27 07:14:54;;;;;;;0.10;0.10;;;;;;;;;;5018685;28;20368;-73
2022/04/27 07:17:20;;;;;;;0.20;0.20;;;;;;;;;;5034025;28;20045;-73
2022/04/27 07:19:46;;;;;;;0.10;0.10;;;;;;;;;;5018256;28;20053;-73
2022/04/27 07:22:12;;;;;;;0.10;0.10;;;;;;;;;;5029262;28;20038;-73
2022/04/27 07:24:38;;;;;;;0.65;0.30;;;;;;;;;;5036057;28;20045;-73
2022/04/27 07:27:05;;;;;;;0.10;0.10;;;;;;;;;;5045215;28;20124;-72
2022/04/27 07:29:31;;;;;;;0.20;0.20;;;;;;;;;;5042055;28;20041;-72
2022/04/27 07:31:59;;;;;;;0.10;0.10;;;;;;;;;;5040348;28;20084;-70
2022/04/27 07:34:26;;;;;;;0.25;0.25;;;;;;;;;;5037476;28;20044;-71
2022/04/27 07:36:52;;;;;;;0.20;0.20;;;;;;;;;;5037846;28;20052;-72
2022/04/27 07:39:18;;;;;;;0.20;0.20;;;;;;;;;;5038020;28;20025;-73
2022/04/27 07:41:45;;;;;;;0.10;0.10;;;;;;;;;;5042422;28;20053;-71
2022/04/27 07:44:16;;;;;;;0.10;0.10;;;;;;;;;;5039927;28;20040;-74
2022/04/27 07:46:47;;;;;;;0.20;0.20;;;;;;;;;;5036354;28;20119;-71
2022/04/27 07:49:14;;;;;;;0.13;0.13;;;;;;;;;;5037229;28;20076;-72
2022/04/27 07:51:40;;;;;;;0.10;0.10;;;;;;;;;;5037823;28;20045;-72
2022/04/27 07:54:06;;;;;;;0.30;0.30;;;;;;;;;;5037204;28;20128;-70
2022/04/27 07:56:32;;;;;;;0.13;0.13;;;;;;;;;;5036693;28;20045;-72
2022/04/27 07:58:59;;;;;;;0.30;0.30;;;;;;;;;;5036414;28;20500;-72
2022/04/27 08:01:25;;;;;;;0.20;0.20;;;;;;;;;;5035385;28;20108;-70
2022/04/27 08:03:51;;;;;;;0.10;0.10;;;;;;;;;;5035757;28;20045;-71
2022/04/27 08:06:18;;;;;;;0.10;0.10;;;;;;;;;;5036936;28;20045;-72
2022/04/27 08:08:44;;;;;;;0.43;0.43;;;;;;;;;;5025801;28;20492;-72
2022/04/27 08:11:13;;;;;;;0.20;0.20;;;;;;;;;;5024473;28;20088;-71
2022/04/27 08:13:39;;;;;;;0.95;0.80;;;;;;;;;;5028345;28;20038;-71
2022/04/27 08:16:12;;;;;;;1.35;0.50;;;;;;;;;;5027529;28;20038;-72
2022/04/27 08:18:39;;;;;;;0.25;0.25;;;;;;;;;;5018705;28;20045;-72
2022/04/27 08:21:15;;;;;;;0.38;0.38;;;;;;;;;;5036280;28;20040;-72
2022/04/27 08:23:41;;;;;;;0.57;0.57;;;;;;;;;;5035813;28;20045;-71
2022/04/27 08:26:08;;;;;;;0.10;0.10;;;;;;;;;;5036205;28;20044;-72
2022/04/27 08:28:37;;;;;;;0.20;0.20;;;;;;;;;;5036012;28;20077;-73
2022/04/27 08:31:03;;;;;;;0.40;0.40;;;;;;;;;;5036068;28;20119;-72
2022/04/27 08:33:30;;;;;;;0.10;0.10;;;;;;;;;;5035737;28;20041;-72
2022/04/27 08:35:59;;;;;;;0.93;0.47;;;;;;;;;;5035686;28;20091;-72
2022/04/27 08:38:27;;;;;;;0.28;0.28;;;;;;;;;;5040780;28;20065;-70
2022/04/27 08:40:53;;;;;;;0.32;0.32;;;;;;;;;;5057063;28;20484;-72
2022/04/27 08:43:19;;;;;;;0.63;0.40;;;;;;;;;;5048417;28;20496;-71
2022/04/27 08:45:45;;;;;;;0.40;0.40;;;;;;;;;;5036238;28;20045;-71
2022/04/27 08:48:12;;;;;;;0.35;0.35;;;;;;;;;;5035911;28;20543;-70
2022/04/27 08:50:39;;;;;;;0.20;0.20;;;;;;;;;;5036439;28;20496;-72
2022/04/27 08:53:05;;;;;;;0.50;0.50;;;;;;;;;;5036525;28;20041;-72
2022/04/27 08:55:32;;;;;;;0.32;0.32;;;;;;;;;;5035633;28;20491;-72
2022/04/27 08:58:08;;;;;;;0.30;0.30;;;;;;;;;;5032576;28;20034;-71
2022/04/27 09:00:34;;;;;;;0.95;0.90;;;;;;;;;;5030747;28;20076;-70
2022/04/27 09:03:19;;;;;;;0.20;0.20;;;;;;;;;;5036106;28;20037;-70
2022/04/27 09:05:52;;;;;;;0.25;0.25;;;;;;;;;;5025163;28;20499;-71
2022/04/27 09:08:18;;;;;;;0.52;0.52;;;;;;;;;;5035723;28;20076;-71
2022/04/27 09:10:45;;;;;;;0.10;0.10;;;;;;;;;;5035835;28;20507;-71
2022/04/27 09:13:11;;;;;;;0.47;0.47;;;;;;;;;;5035769;28;20046;-69
2022/04/27 09:15:37;;;;;;;0.10;0.10;;;;;;;;;;5035895;28;20132;-70
2022/04/27 09:21:10;;;;;;;0.40;0.40;;;;;;;;;;5034943;28;20136;-69
2022/04/27 09:23:40;;;;;;;0.73;0.73;;;;;;;;;;5016278;28;20038;-69
2022/04/27 09:26:19;;;;;;;0.40;0.40;;;;;;;;;;5023623;28;20151;-69
2022/04/27 09:28:48;;;;;;;0.90;0.70;;;;;;;;;;5035559;28;20050;-70
2022/04/27 09:31:27;;;;;;;0.25;0.25;;;;;;;;;;5036011;28;20110;-69
2022/04/27 09:34:03;;;;;;;0.65;0.57;;;;;;;;;;5035416;28;20051;-69
2022/04/27 09:36:29;;;;;;;0.32;0.32;;;;;;;;;;5034872;28;20068;-69
2022/04/27 09:38:57;;;;;;;0.15;0.15;;;;;;;;;;5034902;28;20045;-69
2022/04/27 09:41:38;;;;;;;2.08;0.60;;;;;;;;;;5035344;28;20095;-69
2022/04/27 09:44:04;;;;;;;0.20;0.20;;;;;;;;;;5041136;28;20029;-69
2022/04/27 09:46:31;;;;;;;0.38;0.32;;;;;;;;;;5037123;28;20036;-69
2022/04/27 09:49:11;;;;;;;0.13;0.13;;;;;;;;;;5055511;28;20165;-69
2022/04/27 09:51:37;;;;;;;6.55;0.77;;;;;;;;;;5055192;28;20510;-69
2022/04/27 09:54:04;;;;;;;0.17;0.17;;;;;;;;;;5055035;28;20090;-69
2022/04/27 09:56:34;;;;;;;0.20;0.20;;;;;;;;;;5035482;28;20045;-69
2022/04/27 09:59:04;;;;;;;0.40;0.40;;;;;;;;;;5030986;28;20053;-69
2022/04/27 10:01:35;;;;;;;0.55;0.38;;;;;;;;;;5026430;28;20504;-69
2022/04/27 10:04:03;;;;;;;0.68;0.55;;;;;;;;;;5035073;28;20083;-69
2022/04/27 10:06:31;;;;;;;0.10;0.10;;;;;;;;;;5015480;28;20042;-69
2022/04/27 10:08:59;;;;;;;0.22;0.22;;;;;;;;;;5015770;28;20044;-69
2022/04/27 10:11:27;;;;;;;0.30;0.25;;;;;;;;;;5054617;28;20119;-69
2022/04/27 10:13:54;;;;;;;0.20;0.20;;;;;;;;;;5054103;28;20052;-69
2022/04/27 10:16:21;;;;;;;0.20;0.20;;;;;;;;;;5034319;28;20120;-69
2022/04/27 10:18:48;;;;;;;0.40;0.40;;;;;;;;;;5034131;28;20124;-69
2022/04/27 10:21:14;;;;;;;0.10;0.10;;;;;;;;;;5033166;28;20120;-69
2022/04/27 10:23:44;;;;;;;0.10;0.10;;;;;;;;;;5030592;28;20077;-69
2022/04/27 10:26:30;;;;;;;0.32;0.32;;;;;;;;;;5032336;28;20128;-69
2022/04/27 10:28:59;;;;;;;0.20;0.20;;;;;;;;;;5029338;28;20044;-70
2022/04/27 10:31:55;;;;;;;0.25;0.25;;;;;;;;;;5032216;28;20065;-70
2022/04/27 10:34:22;;;;;;;0.10;0.10;;;;;;;;;;5030262;28;20033;-70
2022/04/27 10:36:48;;;;;;;0.20;0.20;;;;;;;;;;5032612;28;20034;-69
2022/04/27 10:39:14;;;;;;;0.47;0.32;;;;;;;;;;5034101;28;20568;-69
2022/04/27 10:41:41;;;;;;;0.30;0.30;;;;;;;;;;5033721;28;20101;-70
2022/04/27 10:44:07;;;;;;;0.70;0.65;;;;;;;;;;5036794;28;20123;-70
2022/04/27 10:46:41;;;;;;;0.22;0.22;;;;;;;;;;5043684;28;20033;-70
2022/04/27 10:49:26;;;;;;;0.20;0.20;;;;;;;;;;5038319;28;20488;-71
2022/04/27 10:52:00;;;;;;;0.10;0.10;;;;;;;;;;5039910;28;20530;-72
2022/04/27 10:54:27;;;;;;;0.20;0.20;;;;;;;;;;5042527;28;20041;-71
2022/04/27 10:56:53;;;;;;;0.15;0.15;;;;;;;;;;5043819;28;20040;-72
2022/04/27 10:59:42;;;;;;;1.85;0.55;;;;;;;;;;5044103;28;20042;-72
2022/04/27 11:02:28;;;;;;;0.20;0.20;;;;;;;;;;5051043;28;20125;-71
2022/04/27 11:04:54;;;;;;;0.30;0.30;;;;;;;;;;5054335;28;20059;-72
2022/04/27 11:07:36;;;;;;;0.70;0.70;;;;;;;;;;5054572;28;20041;-72
2022/04/27 11:10:16;;;;;;;0.45;0.45;;;;;;;;;;5048253;28;20038;-71
2022/04/27 11:12:44;;;;;;;0.30;0.30;;;;;;;;;;5038579;28;20064;-72
2022/04/27 11:15:11;;;;;;;1.02;0.98;;;;;;;;;;5044292;28;20083;-72
2022/04/27 11:17:38;;;;;;;0.47;0.47;;;;;;;;;;5042619;28;20053;-72
2022/04/27 11:20:05;;;;;;;0.30;0.30;;;;;;;;;;5044440;28;20095;-72
2022/04/27 11:22:38;;;;;;;0.25;0.25;;;;;;;;;;5042011;28;20037;-72
2022/04/27 11:25:08;;;;;;;0.28;0.28;;;;;;;;;;5034297;28;20045;-72
2022/04/27 11:27:35;;;;;;;0.38;0.38;;;;;;;;;;5033227;28;20037;-72
2022/04/27 11:30:02;;;;;;;0.50;0.50;;;;;;;;;;5034022;28;20117;-72
2022/04/27 11:32:28;;;;;;;0.30;0.30;;;;;;;;;;5034113;28;20053;-72
2022/04/27 11:34:54;;;;;;;0.30;0.30;;;;;;;;;;5034396;28;20067;-73
2022/04/27 11:37:21;;;;;;;0.57;0.57;;;;;;;;;;5034029;28;20042;-73
2022/04/27 11:39:48;;;;;;;0.20;0.20;;;;;;;;;;5033828;28;20037;-73
2022/04/27 11:42:16;;;;;;;0.30;0.30;;;;;;;;;;5033397;28;20056;-72
2022/04/27 11:44:43;;;;;;;0.77;0.35;;;;;;;;;;5030497;28;20041;-73
2022/04/27 11:47:26;;;;;;;0.30;0.30;;;;;;;;;;5033196;28;20048;-73
2022/04/27 11:50:02;;;;;;;0.30;0.30;;;;;;;;;;5034195;28;20162;-73
2022/04/27 11:52:30;;;;;;;0.47;0.47;;;;;;;;;;5034851;28;20048;-73
2022/04/27 11:55:23;;;;;;;0.40;0.40;;;;;;;;;;5037492;28;20048;-73
2022/04/27 11:57:49;;;;;;;1.08;0.40;;;;;;;;;;5036111;28;20082;-73
2022/04/27 12:00:28;;;;;;;0.20;0.20;;;;;;;;;;5037916;28;20091;-73
2022/04/27 12:03:03;;;;;;;0.55;0.55;;;;;;;;;;5038392;28;20037;-73
2022/04/27 12:05:30;;;;;;;0.20;0.20;;;;;;;;;;5036967;28;20052;-71
2022/04/27 12:07:56;;;;;;;0.63;0.63;;;;;;;;;;5037542;28;20530;-72
2022/04/27 12:10:22;;;;;;;0.20;0.20;;;;;;;;;;5036890;28;20041;-72
2022/04/27 12:12:49;;;;;;;0.40;0.40;;;;;;;;;;5036665;28;20557;-73
2022/04/27 12:15:18;;;;;;;0.47;0.47;;;;;;;;;;5036288;28;20099;-73
2022/04/27 12:17:47;;;;;;;0.30;0.30;;;;;;;;;;5036815;28;20041;-72
2022/04/27 12:20:42;;;;;;;0.47;0.40;;;;;;;;;;5035797;28;20141;-72
2022/04/27 12:23:08;;;;;;;0.22;0.20;;;;;;;;;;5026329;28;20047;-71
2022/04/27 12:25:42;;;;;;;0.28;0.20;;;;;;;;;;5036781;28;20396;-70
2022/04/27 12:28:29;;;;;;;0.20;0.20;;;;;;;;;;5036670;28;20068;-71
2022/04/27 12:30:56;;;;;;;0.20;0.20;;;;;;;;;;5035261;28;20053;-72
2022/04/27 12:33:30;;;;;;;0.40;0.40;;;;;;;;;;5036069;28;20124;-72
2022/04/27 12:39:02;;;;;;;0.28;0.28;;;;;;;;;;5036137;28;20105;-73
2022/04/27 12:41:41;;;;;;;0.10;0.10;;;;;;;;;;5036987;28;20519;-72
2022/04/27 12:44:09;;;;;;;0.43;0.43;;;;;;;;;;5017116;28;20128;-74
2022/04/27 12:46:35;;;;;;;0.47;0.47;;;;;;;;;;5025280;28;20848;-75
2022/04/27 12:49:04;;;;;;;0.20;0.20;;;;;;;;;;5036002;28;20041;-75
2022/04/27 12:51:32;;;;;;;1.98;0.50;;;;;;;;;;5035090;28;20403;-73
2022/04/27 12:53:58;;;;;;;0.20;0.17;;;;;;;;;;5034911;28;20587;-74
2022/04/27 12:56:31;;;;;;;0.60;0.40;;;;;;;;;;5036134;28;20052;-73
2022/04/27 12:59:06;;;;;;;0.43;0.40;;;;;;;;;;5036621;28;20488;-74
2022/04/27 13:01:32;;;;;;;0.20;0.20;;;;;;;;;;5035438;28;20517;-74
2022/04/27 13:03:59;;;;;;;0.57;0.57;;;;;;;;;;5036044;28;20037;-74
2022/04/27 13:06:26;;;;;;;0.32;0.32;;;;;;;;;;5034987;28;20095;-73
2022/04/27 13:08:53;;;;;;;0.30;0.30;;;;;;;;;;5035026;28;20046;-74
2022/04/27 13:14:04;;;;;;;0.17;0.17;;;;;;;;;;5019287;28;20045;-73
2022/04/27 13:16:31;;;;;;;1.75;0.30;;;;;;;;;;5020053;28;20086;-73
2022/04/27 13:18:57;;;;;;;0.98;0.73;;;;;;;;;;5035394;28;20514;-73
2022/04/27 13:21:23;;;;;;;0.20;0.20;;;;;;;;;;5035737;28;20049;-72
2022/04/27 13:23:49;;;;;;;0.20;0.20;;;;;;;;;;5035316;28;20088;-71
2022/04/27 13:26:15;;;;;;;0.28;0.25;;;;;;;;;;5034621;28;20071;-71
2022/04/27 13:28:42;;;;;;;0.20;0.20;;;;;;;;;;5035184;28;20041;-71
2022/04/27 13:31:08;;;;;;;0.28;0.28;;;;;;;;;;5033135;28;20543;-72
2022/04/27 13:33:34;;;;;;;0.57;0.57;;;;;;;;;;5033193;28;20116;-72
2022/04/27 13:36:00;;;;;;;0.57;0.47;;;;;;;;;;5029452;28;20096;-72
2022/04/27 13:38:29;;;;;;;0.45;0.45;;;;;;;;;;5024068;28;20088;-72
2022/04/27 13:40:57;;;;;;;0.20;0.20;;;;;;;;;;5015232;28;20049;-73
2022/04/27 13:43:23;;;;;;;1.40;0.52;;;;;;;;;;5023266;28;20091;-72
2022/04/27 13:45:50;;;;;;;0.30;0.30;;;;;;;;;;5034465;28;20052;-72
2022/04/27 13:48:16;;;;;;;0.30;0.30;;;;;;;;;;5035012;28;20052;-72
2022/04/27 13:50:42;;;;;;;0.50;0.38;;;;;;;;;;5034780;28;20171;-72
2022/04/27 13:53:09;;;;;;;0.30;0.30;;;;;;;;;;5013327;28;20057;-72
2022/04/27 13:55:35;;;;;;;0.30;0.30;;;;;;;;;;5033143;28;20091;-72
2022/04/27 13:58:02;;;;;;;0.30;0.30;;;;;;;;;;5033742;28;20037;-72
2022/04/27 14:00:28;;;;;;;0.10;0.10;;;;;;;;;;5033843;28;20528;-72
2022/04/27 14:02:54;;;;;;;0.20;0.20;;;;;;;;;;5034195;28;20542;-72
2022/04/27 14:05:21;;;;;;;0.50;0.40;;;;;;;;;;5034258;28;20099;-72
2022/04/27 14:07:47;;;;;;;0.63;0.63;;;;;;;;;;5034373;28;20132;-72
2022/04/27 14:10:15;;;;;;;0.52;0.52;;;;;;;;;;5034907;28;20045;-72
2022/04/27 14:15:27;;;;;;;0.32;0.32;;;;;;;;;;5033112;28;20132;-71
2022/04/27 14:18:14;;;;;;;0.20;0.20;;;;;;;;;;5034977;28;20041;-73
2022/04/27 14:20:44;;;;;;;0.17;0.17;;;;;;;;;;5034033;28;20116;-71
2022/04/27 14:23:11;;;;;;;0.30;0.30;;;;;;;;;;5033719;28;20033;-72
2022/04/27 14:25:38;;;;;;;0.28;0.28;;;;;;;;;;5033814;28;20067;-71
2022/04/27 14:28:05;;;;;;;0.60;0.60;;;;;;;;;;5032475;28;20049;-72
2022/04/27 14:30:31;;;;;;;0.55;0.55;;;;;;;;;;5033002;28;20128;-72
2022/04/27 14:32:57;;;;;;;0.30;0.30;;;;;;;;;;5034721;28;20041;-71
2022/04/27 14:35:24;;;;;;;0.30;0.30;;;;;;;;;;5034548;28;20103;-72
2022/04/27 14:37:50;;;;;;;0.15;0.15;;;;;;;;;;5034889;28;20045;-72
2022/04/27 14:40:17;;;;;;;0.35;0.35;;;;;;;;;;5034191;28;20116;-71
2022/04/27 14:42:44;;;;;;;0.40;0.40;;;;;;;;;;5034384;28;20041;-71
2022/04/27 14:45:11;;;;;;;0.20;0.20;;;;;;;;;;5034173;28;20128;-72
2022/04/27 14:47:37;;;;;;;0.68;0.68;;;;;;;;;;5034195;28;20050;-72
2022/04/27 14:50:04;;;;;;;0.20;0.20;;;;;;;;;;5035019;28;20080;-72
2022/04/27 14:52:31;;;;;;;0.47;0.47;;;;;;;;;;5034188;28;20048;-72
2022/04/27 14:54:59;;;;;;;0.55;0.55;;;;;;;;;;5034309;28;20069;-72
2022/04/27 14:57:25;;;;;;;0.20;0.20;;;;;;;;;;5034303;28;20040;-72
2022/04/27 14:59:53;;;;;;;1.02;1.00;;;;;;;;;;5034949;28;20561;-72
2022/04/27 15:02:22;;;;;;;0.20;0.20;;;;;;;;;;5033881;28;20183;-72
2022/04/27 15:04:48;;;;;;;0.20;0.20;;;;;;;;;;5034805;28;20048;-72
2022/04/27 15:07:14;;;;;;;0.30;0.30;;;;;;;;;;5034010;28;20508;-72
2022/04/27 15:09:40;;;;;;;0.35;0.25;;;;;;;;;;5034576;28;20120;-72
2022/04/27 15:12:07;;;;;;;0.40;0.40;;;;;;;;;;5034234;28;20038;-72